sensor_id;sensor_type;location;lat;lon;timestamp;P1;P2;P0
83543;PMS5003;73487;54.448;-0.942;2024-02-15T00:01:15;24;22;11
83543;PMS5003;73487;54.448;-0.942;2024-02-15T00:04:15;23;23;9
83543;PMS5003;73487;54.448;-0.942;2024-02-15T00:07:15;25;23;9
83543;PMS5003;73487;54.448;-0.942;2024-02-15T00:10:15;27;26;10
83543;PMS5003;73487;54.448;-0.942;2024-02-15T00:13:15;16;15;6
83543;PMS5003;73487;54.448;-0.942;2024-02-15T00:16:15;11;11;3
83543;PMS5003;73487;54.448;-0.942;2024-02-15T00:19:15;19;18;8
83543;PMS5003;73487;54.448;-0.942;2024-02-15T00:22:15;15;13;5
83543;PMS5003;73487;54.448;-0.942;2024-02-15T00:25:15;12;12;5
83543;PMS5003;73487;54.448;-0.942;2024-02-15T00:28:15;16;14;5
83543;PMS5003;73487;54.448;-0.942;2024-02-15T00:31:15;12;12;6
83543;PMS5003;73487;54.448;-0.942;2024-02-15T00:34:15;15;14;6
83543;PMS5003;73487;54.448;-0.942;2024-02-15T00:37:15;14;13;7
83543;PMS5003;73487;54.448;-0.942;2024-02-15T00:40:15;14;13;7
83543;PMS5003;73487;54.448;-0.942;2024-02-15T00:43:15;12;12;7
83543;PMS5003;73487;54.448;-0.942;2024-02-15T00:46:16;14;13;6
83543;PMS5003;73487;54.448;-0.942;2024-02-15T00:49:15;15;14;6
83543;PMS5003;73487;54.448;-0.942;2024-02-15T00:52:16;13;12;6
83543;PMS5003;73487;54.448;-0.942;2024-02-15T00:55:15;12;12;5
83543;PMS5003;73487;54.448;-0.942;2024-02-15T00:58:15;19;16;8
83543;PMS5003;73487;54.448;-0.942;2024-02-15T01:01:15;20;18;7
83543;PMS5003;73487;54.448;-0.942;2024-02-15T01:04:15;17;15;7
83543;PMS5003;73487;54.448;-0.942;2024-02-15T01:07:15;12;12;5
83543;PMS5003;73487;54.448;-0.942;2024-02-15T01:10:15;16;14;7
83543;PMS5003;73487;54.448;-0.942;2024-02-15T01:13:15;20;17;7
83543;PMS5003;73487;54.448;-0.942;2024-02-15T01:16:15;32;30;10
83543;PMS5003;73487;54.448;-0.942;2024-02-15T01:19:15;19;18;7
83543;PMS5003;73487;54.448;-0.942;2024-02-15T01:22:16;18;17;8
83543;PMS5003;73487;54.448;-0.942;2024-02-15T01:25:15;19;18;9
83543;PMS5003;73487;54.448;-0.942;2024-02-15T01:28:15;19;19;9
83543;PMS5003;73487;54.448;-0.942;2024-02-15T01:31:15;16;15;7
83543;PMS5003;73487;54.448;-0.942;2024-02-15T01:34:15;19;18;8
83543;PMS5003;73487;54.448;-0.942;2024-02-15T01:37:15;18;17;8
83543;PMS5003;73487;54.448;-0.942;2024-02-15T01:40:16;16;16;5
83543;PMS5003;73487;54.448;-0.942;2024-02-15T01:43:15;21;20;8
83543;PMS5003;73487;54.448;-0.942;2024-02-15T01:46:15;23;21;12
83543;PMS5003;73487;54.448;-0.942;2024-02-15T01:49:15;13;13;6
83543;PMS5003;73487;54.448;-0.942;2024-02-15T01:52:15;20;19;8
83543;PMS5003;73487;54.448;-0.942;2024-02-15T01:55:15;21;19;8
83543;PMS5003;73487;54.448;-0.942;2024-02-15T01:58:15;19;18;8
83543;PMS5003;73487;54.448;-0.942;2024-02-15T02:01:15;16;15;6
83543;PMS5003;73487;54.448;-0.942;2024-02-15T02:04:15;15;15;6
83543;PMS5003;73487;54.448;-0.942;2024-02-15T02:07:15;8;8;3
83543;PMS5003;73487;54.448;-0.942;2024-02-15T02:10:15;8;7;4
83543;PMS5003;73487;54.448;-0.942;2024-02-15T02:13:15;8;8;3
83543;PMS5003;73487;54.448;-0.942;2024-02-15T02:19:15;12;11;4
83543;PMS5003;73487;54.448;-0.942;2024-02-15T02:22:16;16;15;4
83543;PMS5003;73487;54.448;-0.942;2024-02-15T02:25:15;8;7;4
83543;PMS5003;73487;54.448;-0.942;2024-02-15T02:28:15;8;8;4
83543;PMS5003;73487;54.448;-0.942;2024-02-15T02:31:15;11;11;5
83543;PMS5003;73487;54.448;-0.942;2024-02-15T02:34:15;8;7;4
83543;PMS5003;73487;54.448;-0.942;2024-02-15T02:37:15;12;9;4
83543;PMS5003;73487;54.448;-0.942;2024-02-15T02:40:15;14;12;5
83543;PMS5003;73487;54.448;-0.942;2024-02-15T02:43:45;4;4;2
83543;PMS5003;73487;54.448;-0.942;2024-02-15T02:46:45;12;11;5
83543;PMS5003;73487;54.448;-0.942;2024-02-15T02:49:45;7;7;3
83543;PMS5003;73487;54.448;-0.942;2024-02-15T02:52:45;8;8;3
83543;PMS5003;73487;54.448;-0.942;2024-02-15T02:55:45;8;8;5
83543;PMS5003;73487;54.448;-0.942;2024-02-15T02:58:45;11;10;4
83543;PMS5003;73487;54.448;-0.942;2024-02-15T03:01:45;10;10;5
83543;PMS5003;73487;54.448;-0.942;2024-02-15T03:04:45;9;8;4
83543;PMS5003;73487;54.448;-0.942;2024-02-15T03:07:45;11;11;5
83543;PMS5003;73487;54.448;-0.942;2024-02-15T03:10:46;9;8;4
83543;PMS5003;73487;54.448;-0.942;2024-02-15T03:13:46;14;13;5
83543;PMS5003;73487;54.448;-0.942;2024-02-15T03:16:45;13;13;5
83543;PMS5003;73487;54.448;-0.942;2024-02-15T03:19:45;13;13;5
83543;PMS5003;73487;54.448;-0.942;2024-02-15T03:25:45;21;20;7
83543;PMS5003;73487;54.448;-0.942;2024-02-15T03:28:45;25;24;10
83543;PMS5003;73487;54.448;-0.942;2024-02-15T03:31:45;16;16;8
83543;PMS5003;73487;54.448;-0.942;2024-02-15T03:34:45;13;12;5
83543;PMS5003;73487;54.448;-0.942;2024-02-15T03:37:46;18;17;8
83543;PMS5003;73487;54.448;-0.942;2024-02-15T03:40:45;14;13;5
83543;PMS5003;73487;54.448;-0.942;2024-02-15T03:43:45;17;16;6
83543;PMS5003;73487;54.448;-0.942;2024-02-15T03:46:45;15;15;8
83543;PMS5003;73487;54.448;-0.942;2024-02-15T03:49:45;24;23;8
83543;PMS5003;73487;54.448;-0.942;2024-02-15T03:52:46;17;16;7
83543;PMS5003;73487;54.448;-0.942;2024-02-15T03:55:45;23;22;9
83543;PMS5003;73487;54.448;-0.942;2024-02-15T03:58:45;25;21;8
83543;PMS5003;73487;54.448;-0.942;2024-02-15T04:01:45;12;12;7
83543;PMS5003;73487;54.448;-0.942;2024-02-15T04:04:46;15;15;6
83543;PMS5003;73487;54.448;-0.942;2024-02-15T04:07:45;19;17;7
83543;PMS5003;73487;54.448;-0.942;2024-02-15T04:10:45;17;16;6
83543;PMS5003;73487;54.448;-0.942;2024-02-15T04:13:45;19;18;9
83543;PMS5003;73487;54.448;-0.942;2024-02-15T04:16:45;28;26;11
83543;PMS5003;73487;54.448;-0.942;2024-02-15T04:19:46;23;20;9
83543;PMS5003;73487;54.448;-0.942;2024-02-15T04:22:45;19;19;9
83543;PMS5003;73487;54.448;-0.942;2024-02-15T04:25:45;19;18;9
83543;PMS5003;73487;54.448;-0.942;2024-02-15T04:28:46;22;22;11
83543;PMS5003;73487;54.448;-0.942;2024-02-15T04:31:46;18;16;7
83543;PMS5003;73487;54.448;-0.942;2024-02-15T04:34:45;20;20;7
83543;PMS5003;73487;54.448;-0.942;2024-02-15T04:37:45;19;19;8
83543;PMS5003;73487;54.448;-0.942;2024-02-15T04:40:45;24;22;6
83543;PMS5003;73487;54.448;-0.942;2024-02-15T04:43:46;17;15;7
83543;PMS5003;73487;54.448;-0.942;2024-02-15T04:46:46;17;17;6
83543;PMS5003;73487;54.448;-0.942;2024-02-15T04:49:45;24;20;7
83543;PMS5003;73487;54.448;-0.942;2024-02-15T04:52:45;16;15;6
83543;PMS5003;73487;54.448;-0.942;2024-02-15T04:55:45;21;19;8
83543;PMS5003;73487;54.448;-0.942;2024-02-15T04:58:45;21;18;8
83543;PMS5003;73487;54.448;-0.942;2024-02-15T05:01:45;15;15;8
83543;PMS5003;73487;54.448;-0.942;2024-02-15T05:04:45;17;16;6
83543;PMS5003;73487;54.448;-0.942;2024-02-15T05:07:45;22;21;8
83543;PMS5003;73487;54.448;-0.942;2024-02-15T05:10:45;18;17;6
83543;PMS5003;73487;54.448;-0.942;2024-02-15T05:13:46;17;16;6
83543;PMS5003;73487;54.448;-0.942;2024-02-15T05:16:46;18;17;6
83543;PMS5003;73487;54.448;-0.942;2024-02-15T05:19:45;14;14;7
83543;PMS5003;73487;54.448;-0.942;2024-02-15T05:22:45;14;14;7
83543;PMS5003;73487;54.448;-0.942;2024-02-15T05:25:45;16;16;6
83543;PMS5003;73487;54.448;-0.942;2024-02-15T05:28:45;18;17;7
83543;PMS5003;73487;54.448;-0.942;2024-02-15T05:31:45;18;17;8
83543;PMS5003;73487;54.448;-0.942;2024-02-15T05:34:46;18;17;6
83543;PMS5003;73487;54.448;-0.942;2024-02-15T05:37:45;22;19;8
83543;PMS5003;73487;54.448;-0.942;2024-02-15T05:40:45;17;17;7
83543;PMS5003;73487;54.448;-0.942;2024-02-15T05:43:46;18;18;7
83543;PMS5003;73487;54.448;-0.942;2024-02-15T05:46:46;23;21;10
83543;PMS5003;73487;54.448;-0.942;2024-02-15T05:49:45;17;17;9
83543;PMS5003;73487;54.448;-0.942;2024-02-15T05:52:46;27;25;8
83543;PMS5003;73487;54.448;-0.942;2024-02-15T05:55:45;19;18;7
83543;PMS5003;73487;54.448;-0.942;2024-02-15T05:58:45;25;23;13
83543;PMS5003;73487;54.448;-0.942;2024-02-15T06:02:15;23;21;9
83543;PMS5003;73487;54.448;-0.942;2024-02-15T06:05:15;24;20;8
83543;PMS5003;73487;54.448;-0.942;2024-02-15T06:08:15;25;22;9
83543;PMS5003;73487;54.448;-0.942;2024-02-15T06:11:18;22;21;11
83543;PMS5003;73487;54.448;-0.942;2024-02-15T06:14:15;23;20;12
83543;PMS5003;73487;54.448;-0.942;2024-02-15T06:17:15;24;22;8
83543;PMS5003;73487;54.448;-0.942;2024-02-15T06:20:16;26;22;10
83543;PMS5003;73487;54.448;-0.942;2024-02-15T06:23:16;19;18;9
83543;PMS5003;73487;54.448;-0.942;2024-02-15T06:26:15;25;23;9
83543;PMS5003;73487;54.448;-0.942;2024-02-15T06:29:15;15;15;8
83543;PMS5003;73487;54.448;-0.942;2024-02-15T06:32:15;25;25;9
83543;PMS5003;73487;54.448;-0.942;2024-02-15T06:35:15;20;17;9
83543;PMS5003;73487;54.448;-0.942;2024-02-15T06:38:15;24;22;9
83543;PMS5003;73487;54.448;-0.942;2024-02-15T06:41:15;17;16;8
83543;PMS5003;73487;54.448;-0.942;2024-02-15T06:44:15;20;20;8
83543;PMS5003;73487;54.448;-0.942;2024-02-15T06:47:15;22;19;7
83543;PMS5003;73487;54.448;-0.942;2024-02-15T06:50:15;25;23;9
83543;PMS5003;73487;54.448;-0.942;2024-02-15T06:53:15;19;19;7
83543;PMS5003;73487;54.448;-0.942;2024-02-15T06:56:15;21;19;7
83543;PMS5003;73487;54.448;-0.942;2024-02-15T06:59:15;26;24;10
83543;PMS5003;73487;54.448;-0.942;2024-02-15T07:02:15;20;17;7
83543;PMS5003;73487;54.448;-0.942;2024-02-15T07:05:15;24;22;8
83543;PMS5003;73487;54.448;-0.942;2024-02-15T07:08:16;25;24;9
83543;PMS5003;73487;54.448;-0.942;2024-02-15T07:11:16;12;12;3
83543;PMS5003;73487;54.448;-0.942;2024-02-15T07:14:15;16;16;5
83543;PMS5003;73487;54.448;-0.942;2024-02-15T07:17:15;16;15;5
83543;PMS5003;73487;54.448;-0.942;2024-02-15T07:20:15;10;10;3
83543;PMS5003;73487;54.448;-0.942;2024-02-15T07:23:15;10;9;4
83543;PMS5003;73487;54.448;-0.942;2024-02-15T07:26:15;13;10;3
83543;PMS5003;73487;54.448;-0.942;2024-02-15T07:29:15;7;7;3
83543;PMS5003;73487;54.448;-0.942;2024-02-15T07:32:15;8;8;3
83543;PMS5003;73487;54.448;-0.942;2024-02-15T07:35:16;5;5;1
83543;PMS5003;73487;54.448;-0.942;2024-02-15T07:38:16;5;5;1
83543;PMS5003;73487;54.448;-0.942;2024-02-15T07:41:20;4;4;1
83543;PMS5003;73487;54.448;-0.942;2024-02-15T07:44:16;3;3;1
83543;PMS5003;73487;54.448;-0.942;2024-02-15T07:47:15;2;1;0
83543;PMS5003;73487;54.448;-0.942;2024-02-15T07:50:17;5;4;2
83543;PMS5003;73487;54.448;-0.942;2024-02-15T07:53:15;6;6;3
83543;PMS5003;73487;54.448;-0.942;2024-02-15T07:56:16;12;10;3
83543;PMS5003;73487;54.448;-0.942;2024-02-15T07:59:15;16;14;5
83543;PMS5003;73487;54.448;-0.942;2024-02-15T08:02:15;17;16;5
83543;PMS5003;73487;54.448;-0.942;2024-02-15T08:05:15;14;14;5
83543;PMS5003;73487;54.448;-0.942;2024-02-15T08:08:15;12;12;5
83543;PMS5003;73487;54.448;-0.942;2024-02-15T08:11:16;13;13;5
83543;PMS5003;73487;54.448;-0.942;2024-02-15T08:14:15;17;16;6
83543;PMS5003;73487;54.448;-0.942;2024-02-15T08:17:15;9;9;4
83543;PMS5003;73487;54.448;-0.942;2024-02-15T08:20:16;8;7;3
83543;PMS5003;73487;54.448;-0.942;2024-02-15T08:23:15;4;3;1
83543;PMS5003;73487;54.448;-0.942;2024-02-15T08:26:15;4;4;1
83543;PMS5003;73487;54.448;-0.942;2024-02-15T08:29:15;7;7;4
83543;PMS5003;73487;54.448;-0.942;2024-02-15T08:32:15;8;7;3
83543;PMS5003;73487;54.448;-0.942;2024-02-15T08:35:15;6;6;3
83543;PMS5003;73487;54.448;-0.942;2024-02-15T08:38:15;5;5;2
83543;PMS5003;73487;54.448;-0.942;2024-02-15T08:41:16;4;3;1
83543;PMS5003;73487;54.448;-0.942;2024-02-15T08:44:15;6;6;2
83543;PMS5003;73487;54.448;-0.942;2024-02-15T08:47:15;7;7;2
83543;PMS5003;73487;54.448;-0.942;2024-02-15T08:50:15;11;11;4
83543;PMS5003;73487;54.448;-0.942;2024-02-15T08:53:16;12;9;3
83543;PMS5003;73487;54.448;-0.942;2024-02-15T08:56:15;13;10;4
83543;PMS5003;73487;54.448;-0.942;2024-02-15T08:59:15;13;13;6
83543;PMS5003;73487;54.448;-0.942;2024-02-15T09:02:15;14;12;5
83543;PMS5003;73487;54.448;-0.942;2024-02-15T09:05:16;16;16;6
83543;PMS5003;73487;54.448;-0.942;2024-02-15T09:08:16;15;14;4
83543;PMS5003;73487;54.448;-0.942;2024-02-15T09:11:15;11;9;5
83543;PMS5003;73487;54.448;-0.942;2024-02-15T09:14:16;14;12;7
83543;PMS5003;73487;54.448;-0.942;2024-02-15T09:17:15;18;17;6
83543;PMS5003;73487;54.448;-0.942;2024-02-15T09:20:16;12;11;6
83543;PMS5003;73487;54.448;-0.942;2024-02-15T09:23:46;18;17;8
83543;PMS5003;73487;54.448;-0.942;2024-02-15T09:26:46;15;14;6
83543;PMS5003;73487;54.448;-0.942;2024-02-15T09:29:46;14;12;5
83543;PMS5003;73487;54.448;-0.942;2024-02-15T09:32:46;14;12;6
83543;PMS5003;73487;54.448;-0.942;2024-02-15T09:35:46;12;11;7
83543;PMS5003;73487;54.448;-0.942;2024-02-15T09:38:46;15;14;7
83543;PMS5003;73487;54.448;-0.942;2024-02-15T09:41:46;19;17;7
83543;PMS5003;73487;54.448;-0.942;2024-02-15T09:44:46;15;13;5
83543;PMS5003;73487;54.448;-0.942;2024-02-15T09:47:46;14;14;8
83543;PMS5003;73487;54.448;-0.942;2024-02-15T09:50:46;12;11;4
83543;PMS5003;73487;54.448;-0.942;2024-02-15T09:53:46;13;12;6
83543;PMS5003;73487;54.448;-0.942;2024-02-15T09:56:46;11;9;6
83543;PMS5003;73487;54.448;-0.942;2024-02-15T09:59:46;11;11;4
83543;PMS5003;73487;54.448;-0.942;2024-02-15T10:05:47;17;16;7
83543;PMS5003;73487;54.448;-0.942;2024-02-15T10:08:46;19;19;6
83543;PMS5003;73487;54.448;-0.942;2024-02-15T10:14:48;8;8;4
83543;PMS5003;73487;54.448;-0.942;2024-02-15T10:17:53;11;10;5
83543;PMS5003;73487;54.448;-0.942;2024-02-15T10:20:46;14;12;4
83543;PMS5003;73487;54.448;-0.942;2024-02-15T10:23:46;17;16;7
83543;PMS5003;73487;54.448;-0.942;2024-02-15T10:26:47;18;18;8
83543;PMS5003;73487;54.448;-0.942;2024-02-15T10:29:46;14;12;6
83543;PMS5003;73487;54.448;-0.942;2024-02-15T10:32:46;21;18;7
83543;PMS5003;73487;54.448;-0.942;2024-02-15T10:35:46;15;15;7
83543;PMS5003;73487;54.448;-0.942;2024-02-15T10:38:46;23;22;9
83543;PMS5003;73487;54.448;-0.942;2024-02-15T10:41:46;15;12;5
83543;PMS5003;73487;54.448;-0.942;2024-02-15T10:44:46;15;15;7
83543;PMS5003;73487;54.448;-0.942;2024-02-15T10:47:46;15;14;7
83543;PMS5003;73487;54.448;-0.942;2024-02-15T10:50:46;12;12;6
83543;PMS5003;73487;54.448;-0.942;2024-02-15T10:53:47;15;13;7
83543;PMS5003;73487;54.448;-0.942;2024-02-15T10:56:46;23;23;9
83543;PMS5003;73487;54.448;-0.942;2024-02-15T11:05:46;14;14;4
83543;PMS5003;73487;54.448;-0.942;2024-02-15T11:08:46;23;23;9
83543;PMS5003;73487;54.448;-0.942;2024-02-15T11:11:46;23;20;9
83543;PMS5003;73487;54.448;-0.942;2024-02-15T11:14:46;21;19;7
83543;PMS5003;73487;54.448;-0.942;2024-02-15T11:17:46;17;17;9
83543;PMS5003;73487;54.448;-0.942;2024-02-15T11:20:46;15;14;6
83543;PMS5003;73487;54.448;-0.942;2024-02-15T11:23:46;11;11;6
83543;PMS5003;73487;54.448;-0.942;2024-02-15T11:26:46;14;12;6
83543;PMS5003;73487;54.448;-0.942;2024-02-15T11:29:49;16;16;9
83543;PMS5003;73487;54.448;-0.942;2024-02-15T11:32:46;16;14;7
83543;PMS5003;73487;54.448;-0.942;2024-02-15T11:38:46;18;16;7
83543;PMS5003;73487;54.448;-0.942;2024-02-15T11:41:46;12;11;6
83543;PMS5003;73487;54.448;-0.942;2024-02-15T11:44:46;17;16;9
83543;PMS5003;73487;54.448;-0.942;2024-02-15T11:47:49;13;12;7
83543;PMS5003;73487;54.448;-0.942;2024-02-15T11:50:46;12;12;8
83543;PMS5003;73487;54.448;-0.942;2024-02-15T11:53:46;12;11;7
83543;PMS5003;73487;54.448;-0.942;2024-02-15T11:59:46;16;15;9
83543;PMS5003;73487;54.448;-0.942;2024-02-15T12:02:46;13;11;7
83543;PMS5003;73487;54.448;-0.942;2024-02-15T12:05:46;13;13;7
83543;PMS5003;73487;54.448;-0.942;2024-02-15T12:08:46;14;13;5
83543;PMS5003;73487;54.448;-0.942;2024-02-15T12:11:46;12;12;8
83543;PMS5003;73487;54.448;-0.942;2024-02-15T12:14:46;17;14;8
83543;PMS5003;73487;54.448;-0.942;2024-02-15T12:17:46;15;15;9
83543;PMS5003;73487;54.448;-0.942;2024-02-15T12:20:46;14;12;8
83543;PMS5003;73487;54.448;-0.942;2024-02-15T12:23:46;16;15;10
83543;PMS5003;73487;54.448;-0.942;2024-02-15T12:26:46;14;14;9
83543;PMS5003;73487;54.448;-0.942;2024-02-15T12:29:51;19;18;9
83543;PMS5003;73487;54.448;-0.942;2024-02-15T12:32:46;15;14;7
83543;PMS5003;73487;54.448;-0.942;2024-02-15T12:35:46;14;13;9
83543;PMS5003;73487;54.448;-0.942;2024-02-15T12:39:16;17;17;8
83543;PMS5003;73487;54.448;-0.942;2024-02-15T12:42:16;16;16;10
83543;PMS5003;73487;54.448;-0.942;2024-02-15T12:45:19;12;10;6
83543;PMS5003;73487;54.448;-0.942;2024-02-15T12:48:16;15;14;9
83543;PMS5003;73487;54.448;-0.942;2024-02-15T12:51:16;11;11;6
83543;PMS5003;73487;54.448;-0.942;2024-02-15T12:54:16;13;13;7
83543;PMS5003;73487;54.448;-0.942;2024-02-15T12:57:16;13;13;7
83543;PMS5003;73487;54.448;-0.942;2024-02-15T13:00:17;14;14;9
83543;PMS5003;73487;54.448;-0.942;2024-02-15T13:03:16;17;16;9
83543;PMS5003;73487;54.448;-0.942;2024-02-15T13:06:16;14;14;8
83543;PMS5003;73487;54.448;-0.942;2024-02-15T13:09:16;14;14;9
83543;PMS5003;73487;54.448;-0.942;2024-02-15T13:12:16;17;17;10
83543;PMS5003;73487;54.448;-0.942;2024-02-15T13:15:16;14;14;9
83543;PMS5003;73487;54.448;-0.942;2024-02-15T13:18:16;15;13;9
83543;PMS5003;73487;54.448;-0.942;2024-02-15T13:21:16;16;16;10
83543;PMS5003;73487;54.448;-0.942;2024-02-15T13:24:16;15;15;10
83543;PMS5003;73487;54.448;-0.942;2024-02-15T13:27:16;15;15;10
83543;PMS5003;73487;54.448;-0.942;2024-02-15T13:30:16;15;15;9
83543;PMS5003;73487;54.448;-0.942;2024-02-15T13:33:16;15;14;8
83543;PMS5003;73487;54.448;-0.942;2024-02-15T13:36:16;9;9;7
83543;PMS5003;73487;54.448;-0.942;2024-02-15T13:39:16;12;12;8
83543;PMS5003;73487;54.448;-0.942;2024-02-15T13:42:16;12;12;9
83543;PMS5003;73487;54.448;-0.942;2024-02-15T13:45:16;16;15;8
83543;PMS5003;73487;54.448;-0.942;2024-02-15T13:48:16;11;10;5
83543;PMS5003;73487;54.448;-0.942;2024-02-15T13:51:16;14;13;8
83543;PMS5003;73487;54.448;-0.942;2024-02-15T13:54:16;14;13;8
83543;PMS5003;73487;54.448;-0.942;2024-02-15T13:57:16;13;13;9
83543;PMS5003;73487;54.448;-0.942;2024-02-15T14:00:16;13;13;9
83543;PMS5003;73487;54.448;-0.942;2024-02-15T14:03:16;15;13;9
83543;PMS5003;73487;54.448;-0.942;2024-02-15T14:06:17;14;14;9
83543;PMS5003;73487;54.448;-0.942;2024-02-15T14:09:16;12;12;9
83543;PMS5003;73487;54.448;-0.942;2024-02-15T14:12:16;16;16;9
83543;PMS5003;73487;54.448;-0.942;2024-02-15T14:15:16;11;11;8
83543;PMS5003;73487;54.448;-0.942;2024-02-15T14:18:16;15;15;9
83543;PMS5003;73487;54.448;-0.942;2024-02-15T14:21:16;14;13;6
83543;PMS5003;73487;54.448;-0.942;2024-02-15T14:24:16;12;12;8
83543;PMS5003;73487;54.448;-0.942;2024-02-15T14:27:16;18;17;10
83543;PMS5003;73487;54.448;-0.942;2024-02-15T14:30:16;15;15;10
83543;PMS5003;73487;54.448;-0.942;2024-02-15T14:33:16;14;14;8
83543;PMS5003;73487;54.448;-0.942;2024-02-15T14:36:16;12;12;9
83543;PMS5003;73487;54.448;-0.942;2024-02-15T14:39:16;11;10;7
83543;PMS5003;73487;54.448;-0.942;2024-02-15T14:42:16;13;12;8
83543;PMS5003;73487;54.448;-0.942;2024-02-15T14:45:16;13;13;9
83543;PMS5003;73487;54.448;-0.942;2024-02-15T14:48:16;13;13;9
83543;PMS5003;73487;54.448;-0.942;2024-02-15T14:51:16;10;9;6
83543;PMS5003;73487;54.448;-0.942;2024-02-15T14:54:16;11;11;6
83543;PMS5003;73487;54.448;-0.942;2024-02-15T14:57:16;9;9;7
83543;PMS5003;73487;54.448;-0.942;2024-02-15T15:00:16;12;12;7
83543;PMS5003;73487;54.448;-0.942;2024-02-15T15:03:16;11;10;6
83543;PMS5003;73487;54.448;-0.942;2024-02-15T15:06:16;10;10;6
83543;PMS5003;73487;54.448;-0.942;2024-02-15T15:09:16;9;9;5
83543;PMS5003;73487;54.448;-0.942;2024-02-15T15:12:16;8;8;5
83543;PMS5003;73487;54.448;-0.942;2024-02-15T15:15:16;9;9;5
83543;PMS5003;73487;54.448;-0.942;2024-02-15T15:18:16;8;7;5
83543;PMS5003;73487;54.448;-0.942;2024-02-15T15:21:16;8;7;4
83543;PMS5003;73487;54.448;-0.942;2024-02-15T15:24:16;9;9;6
83543;PMS5003;73487;54.448;-0.942;2024-02-15T15:27:16;8;7;4
83543;PMS5003;73487;54.448;-0.942;2024-02-15T15:30:16;6;6;4
83543;PMS5003;73487;54.448;-0.942;2024-02-15T15:33:16;9;8;5
83543;PMS5003;73487;54.448;-0.942;2024-02-15T15:36:16;7;6;4
83543;PMS5003;73487;54.448;-0.942;2024-02-15T15:39:16;8;7;4
83543;PMS5003;73487;54.448;-0.942;2024-02-15T15:42:16;7;6;3
83543;PMS5003;73487;54.448;-0.942;2024-02-15T15:45:16;8;7;4
83543;PMS5003;73487;54.448;-0.942;2024-02-15T15:48:16;8;8;4
83543;PMS5003;73487;54.448;-0.942;2024-02-15T15:51:16;7;7;4
83543;PMS5003;73487;54.448;-0.942;2024-02-15T15:54:16;5;4;3
83543;PMS5003;73487;54.448;-0.942;2024-02-15T15:57:16;9;8;5
83543;PMS5003;73487;54.448;-0.942;2024-02-15T16:00:16;5;4;3
83543;PMS5003;73487;54.448;-0.942;2024-02-15T16:03:16;8;8;6
83543;PMS5003;73487;54.448;-0.942;2024-02-15T16:06:16;6;5;3
83543;PMS5003;73487;54.448;-0.942;2024-02-15T16:09:16;9;8;5
83543;PMS5003;73487;54.448;-0.942;2024-02-15T16:12:16;5;5;3
83543;PMS5003;73487;54.448;-0.942;2024-02-15T16:15:46;6;6;4
83543;PMS5003;73487;54.448;-0.942;2024-02-15T16:18:46;8;7;4
83543;PMS5003;73487;54.448;-0.942;2024-02-15T16:21:46;7;6;4
83543;PMS5003;73487;54.448;-0.942;2024-02-15T16:24:46;6;6;3
83543;PMS5003;73487;54.448;-0.942;2024-02-15T16:27:46;7;7;4
83543;PMS5003;73487;54.448;-0.942;2024-02-15T16:30:47;7;6;3
83543;PMS5003;73487;54.448;-0.942;2024-02-15T16:33:46;8;6;5
83543;PMS5003;73487;54.448;-0.942;2024-02-15T16:36:46;7;6;4
83543;PMS5003;73487;54.448;-0.942;2024-02-15T16:39:46;7;6;4
83543;PMS5003;73487;54.448;-0.942;2024-02-15T16:42:46;10;8;4
83543;PMS5003;73487;54.448;-0.942;2024-02-15T16:45:46;9;8;5
83543;PMS5003;73487;54.448;-0.942;2024-02-15T16:48:46;5;5;4
83543;PMS5003;73487;54.448;-0.942;2024-02-15T16:51:46;6;5;4
83543;PMS5003;73487;54.448;-0.942;2024-02-15T16:54:46;5;5;4
83543;PMS5003;73487;54.448;-0.942;2024-02-15T16:57:46;8;8;5
83543;PMS5003;73487;54.448;-0.942;2024-02-15T17:00:46;7;7;4
83543;PMS5003;73487;54.448;-0.942;2024-02-15T17:03:46;5;4;2
83543;PMS5003;73487;54.448;-0.942;2024-02-15T17:06:46;10;10;6
83543;PMS5003;73487;54.448;-0.942;2024-02-15T17:09:46;8;7;4
83543;PMS5003;73487;54.448;-0.942;2024-02-15T17:12:46;11;10;5
83543;PMS5003;73487;54.448;-0.942;2024-02-15T17:15:46;10;10;5
83543;PMS5003;73487;54.448;-0.942;2024-02-15T17:18:46;8;8;6
83543;PMS5003;73487;54.448;-0.942;2024-02-15T17:21:46;13;11;7
83543;PMS5003;73487;54.448;-0.942;2024-02-15T17:24:46;10;10;5
83543;PMS5003;73487;54.448;-0.942;2024-02-15T17:27:46;6;6;4
83543;PMS5003;73487;54.448;-0.942;2024-02-15T17:30:46;8;7;5
83543;PMS5003;73487;54.448;-0.942;2024-02-15T17:33:46;8;8;6
83543;PMS5003;73487;54.448;-0.942;2024-02-15T17:36:46;10;8;5
83543;PMS5003;73487;54.448;-0.942;2024-02-15T17:39:46;10;8;5
83543;PMS5003;73487;54.448;-0.942;2024-02-15T17:42:46;10;8;5
83543;PMS5003;73487;54.448;-0.942;2024-02-15T17:45:46;9;9;5
83543;PMS5003;73487;54.448;-0.942;2024-02-15T17:48:46;8;8;5
83543;PMS5003;73487;54.448;-0.942;2024-02-15T17:51:46;6;6;4
83543;PMS5003;73487;54.448;-0.942;2024-02-15T17:54:46;6;6;3
83543;PMS5003;73487;54.448;-0.942;2024-02-15T17:57:46;8;7;3
83543;PMS5003;73487;54.448;-0.942;2024-02-15T18:00:46;8;8;4
83543;PMS5003;73487;54.448;-0.942;2024-02-15T18:03:46;8;8;5
83543;PMS5003;73487;54.448;-0.942;2024-02-15T18:06:46;6;6;4
83543;PMS5003;73487;54.448;-0.942;2024-02-15T18:09:46;9;6;3
83543;PMS5003;73487;54.448;-0.942;2024-02-15T18:12:46;7;6;3
83543;PMS5003;73487;54.448;-0.942;2024-02-15T18:15:46;6;6;4
83543;PMS5003;73487;54.448;-0.942;2024-02-15T18:18:46;8;7;4
83543;PMS5003;73487;54.448;-0.942;2024-02-15T18:21:46;6;6;4
83543;PMS5003;73487;54.448;-0.942;2024-02-15T18:24:46;7;6;4
83543;PMS5003;73487;54.448;-0.942;2024-02-15T18:27:46;10;8;5
83543;PMS5003;73487;54.448;-0.942;2024-02-15T18:30:46;6;6;4
83543;PMS5003;73487;54.448;-0.942;2024-02-15T18:33:46;7;7;5
83543;PMS5003;73487;54.448;-0.942;2024-02-15T18:36:46;5;5;4
83543;PMS5003;73487;54.448;-0.942;2024-02-15T18:39:46;6;6;5
83543;PMS5003;73487;54.448;-0.942;2024-02-15T18:42:46;8;8;6
83543;PMS5003;73487;54.448;-0.942;2024-02-15T18:45:46;11;11;5
83543;PMS5003;73487;54.448;-0.942;2024-02-15T18:48:46;12;12;6
83543;PMS5003;73487;54.448;-0.942;2024-02-15T18:51:46;13;13;8
83543;PMS5003;73487;54.448;-0.942;2024-02-15T18:54:46;20;20;12
83543;PMS5003;73487;54.448;-0.942;2024-02-15T18:57:46;18;18;11
83543;PMS5003;73487;54.448;-0.942;2024-02-15T19:00:46;15;15;11
83543;PMS5003;73487;54.448;-0.942;2024-02-15T19:03:46;18;18;11
83543;PMS5003;73487;54.448;-0.942;2024-02-15T19:06:46;17;16;10
83543;PMS5003;73487;54.448;-0.942;2024-02-15T19:09:46;23;22;12
83543;PMS5003;73487;54.448;-0.942;2024-02-15T19:12:46;19;19;13
83543;PMS5003;73487;54.448;-0.942;2024-02-15T19:15:46;20;20;11
83543;PMS5003;73487;54.448;-0.942;2024-02-15T19:18:46;19;19;11
83543;PMS5003;73487;54.448;-0.942;2024-02-15T19:21:46;14;13;9
83543;PMS5003;73487;54.448;-0.942;2024-02-15T19:24:46;19;18;11
83543;PMS5003;73487;54.448;-0.942;2024-02-15T19:27:46;17;17;12
83543;PMS5003;73487;54.448;-0.942;2024-02-15T19:30:46;16;16;11
83543;PMS5003;73487;54.448;-0.942;2024-02-15T19:33:46;21;21;12
83543;PMS5003;73487;54.448;-0.942;2024-02-15T19:36:46;19;19;10
83543;PMS5003;73487;54.448;-0.942;2024-02-15T19:39:46;19;19;11
83543;PMS5003;73487;54.448;-0.942;2024-02-15T19:42:46;18;16;10
83543;PMS5003;73487;54.448;-0.942;2024-02-15T19:45:46;21;21;14
83543;PMS5003;73487;54.448;-0.942;2024-02-15T19:49:16;17;15;10